createdAt,value
2018-07-08T15:20:56.353Z,26.10
2018-07-08T15:23:24.538Z,26.00
2018-07-08T15:25:52.780Z,26.00
2018-07-08T15:28:21.009Z,26.20
2018-07-08T15:30:49.243Z,26.30
2018-07-08T15:33:17.464Z,26.40
2018-07-08T15:35:45.704Z,26.40
2018-07-08T15:38:13.928Z,26.50
2018-07-08T15:40:42.209Z,26.50
2018-07-08T15:43:10.549Z,26.50
2018-07-08T15:45:38.816Z,26.60
2018-07-08T15:48:07.056Z,26.70
2018-07-08T15:50:35.333Z,26.80
2018-07-08T15:53:03.588Z,26.80
2018-07-08T15:55:31.825Z,26.80
2018-07-08T15:58:00.064Z,26.90
2018-07-08T16:00:28.285Z,26.80
2018-07-08T16:02:56.538Z,26.70
2018-07-08T16:05:24.748Z,26.40
2018-07-08T16:07:52.989Z,26.30
2018-07-08T16:10:21.236Z,26.10
2018-07-08T16:12:49.476Z,26.00
2018-07-08T16:15:17.689Z,26.00
2018-07-08T16:17:45.924Z,25.80
2018-07-08T16:20:14.141Z,26.00
2018-07-08T16:22:42.389Z,26.20
2018-07-08T16:25:10.608Z,26.30
2018-07-08T16:27:38.836Z,26.50
2018-07-08T16:30:07.068Z,26.60
2018-07-08T16:32:35.524Z,26.40
2018-07-08T16:35:03.745Z,26.50
2018-07-08T16:37:32.012Z,26.50
2018-07-08T16:40:00.240Z,26.50
2018-07-08T16:42:28.488Z,26.30
2018-07-08T16:44:56.707Z,26.10
2018-07-08T16:47:24.936Z,25.90
2018-07-08T16:49:53.154Z,25.80
2018-07-08T16:52:21.405Z,25.70
2018-07-08T16:54:49.641Z,25.60
2018-07-08T16:57:17.884Z,25.40
2018-07-08T16:59:46.320Z,25.20
2018-07-08T17:02:14.664Z,25.10
2018-07-08T17:04:42.893Z,25.00
2018-07-08T17:09:39.136Z,24.90
2018-07-08T17:12:07.604Z,24.90
2018-07-08T17:14:35.828Z,24.90
2018-07-08T17:17:04.072Z,25.00
2018-07-08T17:19:32.284Z,25.00
2018-07-08T17:22:00.524Z,25.00
2018-07-08T17:24:28.816Z,25.10
2018-07-08T17:26:57.065Z,25.30
2018-07-08T17:31:54.016Z,25.50
2018-07-08T17:36:50.288Z,25.50
2018-07-08T17:39:18.504Z,25.50
2018-07-08T17:41:46.772Z,25.40
2018-07-08T17:44:15.004Z,25.20
2018-07-08T17:46:43.235Z,25.00
2018-07-08T17:49:11.484Z,24.90
2018-07-08T17:51:39.692Z,24.90
2018-07-08T17:54:07.932Z,24.70
2018-07-08T17:56:36.448Z,24.60
2018-07-08T17:59:04.692Z,24.50
2018-07-08T18:01:32.979Z,24.40
2018-07-08T18:04:01.221Z,24.40
2018-07-08T18:06:29.440Z,24.30
2018-07-08T18:08:57.756Z,24.30
2018-07-08T18:11:25.952Z,24.20
2018-07-08T18:13:54.196Z,24.20
2018-07-08T18:16:22.864Z,24.10
2018-07-08T18:18:51.107Z,24.10
2018-07-08T18:21:19.362Z,24.00
2018-07-08T18:23:47.849Z,23.90
2018-07-08T18:26:16.064Z,23.70
2018-07-08T18:28:44.304Z,23.60
2018-07-08T18:31:12.528Z,23.50
2018-07-08T18:33:41.165Z,23.50
2018-07-08T18:36:09.380Z,23.40
2018-07-08T18:38:37.628Z,23.20
2018-07-08T18:41:06.047Z,23.10
2018-07-08T18:43:34.279Z,23.00
2018-07-08T18:46:02.504Z,22.90
2018-07-08T18:48:30.747Z,22.70
2018-07-08T18:50:58.953Z,22.60
2018-07-08T18:53:27.491Z,22.50
2018-07-08T18:55:55.683Z,22.40
2018-07-08T18:58:23.917Z,22.30
2018-07-08T19:00:52.349Z,22.20
2018-07-08T19:03:20.608Z,22.10
2018-07-08T19:05:48.852Z,22.00
2018-07-08T19:08:17.104Z,21.90
2018-07-08T19:10:45.548Z,21.80
2018-07-08T19:13:13.775Z,21.70
2018-07-08T19:15:41.987Z,21.60
2018-07-08T19:18:10.216Z,21.50
2018-07-08T19:20:38.436Z,21.40
2018-07-08T19:23:06.706Z,21.30
2018-07-08T19:25:34.921Z,21.20
2018-07-08T19:28:03.151Z,21.00
2018-07-08T19:30:31.384Z,20.90
2018-07-08T19:32:59.908Z,20.80
2018-07-08T19:35:28.150Z,20.80
2018-07-08T19:37:56.375Z,20.70
2018-07-08T19:40:24.788Z,20.60
2018-07-08T19:42:52.968Z,20.50
2018-07-08T19:45:21.200Z,20.40
2018-07-08T19:47:49.416Z,20.40
2018-07-08T19:50:17.644Z,20.30
2018-07-08T19:52:45.869Z,20.20
2018-07-08T19:55:14.108Z,20.10
2018-07-08T19:57:42.319Z,20.00
2018-07-08T20:00:10.560Z,19.90
2018-07-08T20:02:38.771Z,19.90
2018-07-08T20:05:07.009Z,19.80
2018-07-08T20:07:35.237Z,19.80
2018-07-08T20:10:03.492Z,19.80
2018-07-08T20:12:31.716Z,19.70
2018-07-08T20:14:59.953Z,19.70
2018-07-08T20:17:28.177Z,19.70
2018-07-08T20:19:56.451Z,19.60
2018-07-08T20:22:24.673Z,19.60
2018-07-08T20:24:52.940Z,19.60
2018-07-08T20:27:21.324Z,19.60
2018-07-08T20:29:49.700Z,19.60
2018-07-08T20:32:17.961Z,19.60
2018-07-08T20:34:46.157Z,19.50
2018-07-08T20:37:14.378Z,19.50
2018-07-08T20:39:42.608Z,19.50
2018-07-08T20:42:10.821Z,19.40
2018-07-08T20:44:39.052Z,19.40
2018-07-08T20:47:07.280Z,19.40
2018-07-08T20:49:35.547Z,19.40
2018-07-08T20:52:03.785Z,19.40
2018-07-08T20:54:32.388Z,19.40
2018-07-08T20:57:00.604Z,19.40
2018-07-08T20:59:28.839Z,19.40
2018-07-08T21:01:57.060Z,19.40
2018-07-08T21:04:25.321Z,19.40
2018-07-08T21:06:53.639Z,19.40
2018-07-08T21:09:21.887Z,19.40
